<?xml version="1.0" encoding="UTF-8" standalone="no" ?>
<gpx xmlns="http://www.topografix.com/GPX/1/1" xmlns:xsi="http://www.w3.org/2001/XMLSchema-instance" xsi:schemaLocation="http://www.topografix.com/GPX/1/1 http://www.topografix.com/GPX/1/1/gpx.xsd" version="1.1" creator="VisuGPX - https://www.visugpx.com">
  <metadata>
    <name>parcours 14</name>
    <desc><![CDATA[entraînement]]></desc>
  </metadata>
  <trk>
    <name><![CDATA[ACTIVE LOG134019]]></name>
    <trkseg>
      <trkpt lat="48.39321" lon="-4.49781">
        <ele>43.692</ele>
        <time>2010-08-24T11:40:17Z</time>
      </trkpt>
      <trkpt lat="48.39343" lon="-4.49682">
        <ele>39.21</ele>
        <time>2010-08-24T11:40:27Z</time>
      </trkpt>
      <trkpt lat="48.39363" lon="-4.49581">
        <ele>37.497</ele>
        <time>2010-08-24T11:40:38Z</time>
      </trkpt>
      <trkpt lat="48.39367" lon="-4.49562">
        <ele>36.999</ele>
        <time>2010-08-24T11:40:41Z</time>
      </trkpt>
      <trkpt lat="48.39391" lon="-4.4945">
        <ele>35.118</ele>
        <time>2010-08-24T11:40:56Z</time>
      </trkpt>
      <trkpt lat="48.39395" lon="-4.49425">
        <ele>34.102</ele>
        <time>2010-08-24T11:41:06Z</time>
      </trkpt>
      <trkpt lat="48.394" lon="-4.49398">
        <ele>33.674</ele>
        <time>2010-08-24T11:41:24Z</time>
      </trkpt>
      <trkpt lat="48.39401" lon="-4.49393">
        <ele>33.61</ele>
        <time>2010-08-24T11:41:43Z</time>
      </trkpt>
      <trkpt lat="48.39413" lon="-4.49359">
        <ele>32.741</ele>
        <time>2010-08-24T11:41:54Z</time>
      </trkpt>
      <trkpt lat="48.39413" lon="-4.49358">
        <ele>32.566</ele>
        <time>2010-08-24T11:41:55Z</time>
      </trkpt>
      <trkpt lat="48.39413" lon="-4.49358">
        <ele>32.158</ele>
        <time>2010-08-24T11:41:59Z</time>
      </trkpt>
      <trkpt lat="48.39435" lon="-4.494">
        <ele>31.223</ele>
        <time>2010-08-24T11:42:06Z</time>
      </trkpt>
      <trkpt lat="48.39449" lon="-4.49425">
        <ele>32.729</ele>
        <time>2010-08-24T11:42:11Z</time>
      </trkpt>
      <trkpt lat="48.39456" lon="-4.4944">
        <ele>32.994</ele>
        <time>2010-08-24T11:42:16Z</time>
      </trkpt>
      <trkpt lat="48.39448" lon="-4.4945">
        <ele>33.334</ele>
        <time>2010-08-24T11:42:20Z</time>
      </trkpt>
      <trkpt lat="48.3941" lon="-4.49501">
        <ele>33.811</ele>
        <time>2010-08-24T11:42:35Z</time>
      </trkpt>
      <trkpt lat="48.39405" lon="-4.49508">
        <ele>33.25</ele>
        <time>2010-08-24T11:42:41Z</time>
      </trkpt>
      <trkpt lat="48.39383" lon="-4.49491">
        <ele>33.715</ele>
        <time>2010-08-24T11:42:48Z</time>
      </trkpt>
      <trkpt lat="48.39383" lon="-4.49491">
        <ele>33.936</ele>
        <time>2010-08-24T11:43:04Z</time>
      </trkpt>
      <trkpt lat="48.39383" lon="-4.49491">
        <ele>36.07</ele>
        <time>2010-08-24T11:48:18Z</time>
      </trkpt>
      <trkpt lat="48.39383" lon="-4.49491">
        <ele>36.342</ele>
        <time>2010-08-24T11:48:53Z</time>
      </trkpt>
      <trkpt lat="48.3938" lon="-4.49506">
        <ele>36.856</ele>
        <time>2010-08-24T11:48:57Z</time>
      </trkpt>
      <trkpt lat="48.39424" lon="-4.49482">
        <ele>37.022</ele>
        <time>2010-08-24T11:49:11Z</time>
      </trkpt>
      <trkpt lat="48.39433" lon="-4.49471">
        <ele>36.519</ele>
        <time>2010-08-24T11:49:14Z</time>
      </trkpt>
      <trkpt lat="48.39452" lon="-4.49446">
        <ele>35.864</ele>
        <time>2010-08-24T11:49:21Z</time>
      </trkpt>
      <trkpt lat="48.39428" lon="-4.49386">
        <ele>35.293</ele>
        <time>2010-08-24T11:49:38Z</time>
      </trkpt>
      <trkpt lat="48.39425" lon="-4.49381">
        <ele>35.479</ele>
        <time>2010-08-24T11:49:41Z</time>
      </trkpt>
      <trkpt lat="48.39424" lon="-4.49379">
        <ele>36.006</ele>
        <time>2010-08-24T11:49:57Z</time>
      </trkpt>
      <trkpt lat="48.39424" lon="-4.49379">
        <ele>36.069</ele>
        <time>2010-08-24T11:50:19Z</time>
      </trkpt>
      <trkpt lat="48.39397" lon="-4.4932">
        <ele>36.51</ele>
        <time>2010-08-24T11:50:31Z</time>
      </trkpt>
      <trkpt lat="48.39351" lon="-4.49226">
        <ele>37.049</ele>
        <time>2010-08-24T11:50:46Z</time>
      </trkpt>
      <trkpt lat="48.39327" lon="-4.49184">
        <ele>39.25</ele>
        <time>2010-08-24T11:50:54Z</time>
      </trkpt>
      <trkpt lat="48.39316" lon="-4.49166">
        <ele>40.638</ele>
        <time>2010-08-24T11:50:58Z</time>
      </trkpt>
      <trkpt lat="48.39303" lon="-4.49144">
        <ele>41.883</ele>
        <time>2010-08-24T11:51:03Z</time>
      </trkpt>
      <trkpt lat="48.39293" lon="-4.49126">
        <ele>43.309</ele>
        <time>2010-08-24T11:51:08Z</time>
      </trkpt>
      <trkpt lat="48.39293" lon="-4.49126">
        <ele>44.46</ele>
        <time>2010-08-24T11:51:11Z</time>
      </trkpt>
      <trkpt lat="48.3924" lon="-4.49029">
        <ele>47.365</ele>
        <time>2010-08-24T11:51:28Z</time>
      </trkpt>
      <trkpt lat="48.39213" lon="-4.48977">
        <ele>49.096</ele>
        <time>2010-08-24T11:51:39Z</time>
      </trkpt>
      <trkpt lat="48.39165" lon="-4.48882">
        <ele>52.121</ele>
        <time>2010-08-24T11:51:58Z</time>
      </trkpt>
      <trkpt lat="48.39143" lon="-4.48839">
        <ele>52.604</ele>
        <time>2010-08-24T11:52:09Z</time>
      </trkpt>
      <trkpt lat="48.39143" lon="-4.48839">
        <ele>52.882</ele>
        <time>2010-08-24T11:52:14Z</time>
      </trkpt>
      <trkpt lat="48.39147" lon="-4.48808">
        <ele>54.102</ele>
        <time>2010-08-24T11:52:17Z</time>
      </trkpt>
      <trkpt lat="48.39174" lon="-4.48777">
        <ele>55.446</ele>
        <time>2010-08-24T11:52:30Z</time>
      </trkpt>
      <trkpt lat="48.39174" lon="-4.48777">
        <ele>55.434</ele>
        <time>2010-08-24T11:52:32Z</time>
      </trkpt>
      <trkpt lat="48.39177" lon="-4.48774">
        <ele>55.547</ele>
        <time>2010-08-24T11:52:34Z</time>
      </trkpt>
      <trkpt lat="48.39186" lon="-4.48764">
        <ele>56.033</ele>
        <time>2010-08-24T11:52:39Z</time>
      </trkpt>
      <trkpt lat="48.39217" lon="-4.48755">
        <ele>57.261</ele>
        <time>2010-08-24T11:52:49Z</time>
      </trkpt>
      <trkpt lat="48.39277" lon="-4.48772">
        <ele>58.705</ele>
        <time>2010-08-24T11:53:05Z</time>
      </trkpt>
      <trkpt lat="48.39374" lon="-4.488">
        <ele>62.066</ele>
        <time>2010-08-24T11:53:31Z</time>
      </trkpt>
      <trkpt lat="48.39464" lon="-4.48825">
        <ele>64.657</ele>
        <time>2010-08-24T11:53:51Z</time>
      </trkpt>
      <trkpt lat="48.39529" lon="-4.48844">
        <ele>64.608</ele>
        <time>2010-08-24T11:54:06Z</time>
      </trkpt>
      <trkpt lat="48.39552" lon="-4.48851">
        <ele>66.153</ele>
        <time>2010-08-24T11:54:11Z</time>
      </trkpt>
      <trkpt lat="48.39591" lon="-4.48861">
        <ele>65.22</ele>
        <time>2010-08-24T11:54:20Z</time>
      </trkpt>
      <trkpt lat="48.39645" lon="-4.48875">
        <ele>63.423</ele>
        <time>2010-08-24T11:54:29Z</time>
      </trkpt>
      <trkpt lat="48.39724" lon="-4.48899">
        <ele>59.439</ele>
        <time>2010-08-24T11:54:43Z</time>
      </trkpt>
      <trkpt lat="48.39734" lon="-4.48902">
        <ele>59.936</ele>
        <time>2010-08-24T11:54:53Z</time>
      </trkpt>
      <trkpt lat="48.39752" lon="-4.48907">
        <ele>58.398</ele>
        <time>2010-08-24T11:55:06Z</time>
      </trkpt>
      <trkpt lat="48.39782" lon="-4.48895">
        <ele>57.426</ele>
        <time>2010-08-24T11:55:10Z</time>
      </trkpt>
      <trkpt lat="48.39802" lon="-4.48869">
        <ele>57.465</ele>
        <time>2010-08-24T11:55:14Z</time>
      </trkpt>
      <trkpt lat="48.39858" lon="-4.48785">
        <ele>59.425</ele>
        <time>2010-08-24T11:55:28Z</time>
      </trkpt>
      <trkpt lat="48.39908" lon="-4.48713">
        <ele>56.163</ele>
        <time>2010-08-24T11:55:39Z</time>
      </trkpt>
      <trkpt lat="48.3993" lon="-4.48676">
        <ele>55.746</ele>
        <time>2010-08-24T11:55:48Z</time>
      </trkpt>
      <trkpt lat="48.39947" lon="-4.48651">
        <ele>54.454</ele>
        <time>2010-08-24T11:55:53Z</time>
      </trkpt>
      <trkpt lat="48.39963" lon="-4.48627">
        <ele>53.857</ele>
        <time>2010-08-24T11:56:01Z</time>
      </trkpt>
      <trkpt lat="48.39966" lon="-4.48621">
        <ele>53.511</ele>
        <time>2010-08-24T11:56:45Z</time>
      </trkpt>
      <trkpt lat="48.39975" lon="-4.48607">
        <ele>52.83</ele>
        <time>2010-08-24T11:56:49Z</time>
      </trkpt>
      <trkpt lat="48.40008" lon="-4.48559">
        <ele>50.335</ele>
        <time>2010-08-24T11:56:57Z</time>
      </trkpt>
      <trkpt lat="48.40024" lon="-4.48536">
        <ele>49.801</ele>
        <time>2010-08-24T11:57:00Z</time>
      </trkpt>
      <trkpt lat="48.4004" lon="-4.48513">
        <ele>48.223</ele>
        <time>2010-08-24T11:57:03Z</time>
      </trkpt>
      <trkpt lat="48.4006" lon="-4.48486">
        <ele>49.695</ele>
        <time>2010-08-24T11:57:07Z</time>
      </trkpt>
      <trkpt lat="48.40102" lon="-4.48425">
        <ele>53.43</ele>
        <time>2010-08-24T11:57:17Z</time>
      </trkpt>
      <trkpt lat="48.40108" lon="-4.48414">
        <ele>53.972</ele>
        <time>2010-08-24T11:57:19Z</time>
      </trkpt>
      <trkpt lat="48.40118" lon="-4.48388">
        <ele>55.193</ele>
        <time>2010-08-24T11:57:23Z</time>
      </trkpt>
      <trkpt lat="48.40139" lon="-4.48355">
        <ele>56.78</ele>
        <time>2010-08-24T11:57:30Z</time>
      </trkpt>
      <trkpt lat="48.4015" lon="-4.48341">
        <ele>58.557</ele>
        <time>2010-08-24T11:57:34Z</time>
      </trkpt>
      <trkpt lat="48.40224" lon="-4.48239">
        <ele>61.698</ele>
        <time>2010-08-24T11:57:56Z</time>
      </trkpt>
      <trkpt lat="48.40302" lon="-4.48127">
        <ele>63.39</ele>
        <time>2010-08-24T11:58:19Z</time>
      </trkpt>
      <trkpt lat="48.40311" lon="-4.48114">
        <ele>64.112</ele>
        <time>2010-08-24T11:58:22Z</time>
      </trkpt>
      <trkpt lat="48.40347" lon="-4.48061">
        <ele>63.766</ele>
        <time>2010-08-24T11:58:35Z</time>
      </trkpt>
      <trkpt lat="48.40368" lon="-4.48028">
        <ele>63.53</ele>
        <time>2010-08-24T11:58:46Z</time>
      </trkpt>
      <trkpt lat="48.40434" lon="-4.47932">
        <ele>61.88</ele>
        <time>2010-08-24T11:59:02Z</time>
      </trkpt>
      <trkpt lat="48.4046" lon="-4.47895">
        <ele>63.101</ele>
        <time>2010-08-24T11:59:08Z</time>
      </trkpt>
      <trkpt lat="48.40497" lon="-4.47842">
        <ele>63.66</ele>
        <time>2010-08-24T11:59:17Z</time>
      </trkpt>
      <trkpt lat="48.40509" lon="-4.47825">
        <ele>62.894</ele>
        <time>2010-08-24T11:59:20Z</time>
      </trkpt>
      <trkpt lat="48.40522" lon="-4.47806">
        <ele>62.084</ele>
        <time>2010-08-24T11:59:24Z</time>
      </trkpt>
      <trkpt lat="48.40536" lon="-4.47784">
        <ele>62.064</ele>
        <time>2010-08-24T11:59:28Z</time>
      </trkpt>
      <trkpt lat="48.40609" lon="-4.47672">
        <ele>63.533</ele>
        <time>2010-08-24T11:59:46Z</time>
      </trkpt>
      <trkpt lat="48.40617" lon="-4.4766">
        <ele>64.069</ele>
        <time>2010-08-24T11:59:48Z</time>
      </trkpt>
      <trkpt lat="48.40623" lon="-4.4765">
        <ele>63.242</ele>
        <time>2010-08-24T11:59:52Z</time>
      </trkpt>
      <trkpt lat="48.40659" lon="-4.476">
        <ele>59.71</ele>
        <time>2010-08-24T11:59:56Z</time>
      </trkpt>
      <trkpt lat="48.40666" lon="-4.4759">
        <ele>59.767</ele>
        <time>2010-08-24T11:59:57Z</time>
      </trkpt>
      <trkpt lat="48.40672" lon="-4.47581">
        <ele>59.754</ele>
        <time>2010-08-24T11:59:58Z</time>
      </trkpt>
      <trkpt lat="48.40683" lon="-4.47546">
        <ele>58.785</ele>
        <time>2010-08-24T12:00:01Z</time>
      </trkpt>
      <trkpt lat="48.40707" lon="-4.47538">
        <ele>58.056</ele>
        <time>2010-08-24T12:00:05Z</time>
      </trkpt>
      <trkpt lat="48.40734" lon="-4.47535">
        <ele>56.153</ele>
        <time>2010-08-24T12:00:09Z</time>
      </trkpt>
      <trkpt lat="48.40786" lon="-4.47546">
        <ele>58.458</ele>
        <time>2010-08-24T12:00:18Z</time>
      </trkpt>
      <trkpt lat="48.40794" lon="-4.47549">
        <ele>59.748</ele>
        <time>2010-08-24T12:00:20Z</time>
      </trkpt>
      <trkpt lat="48.40842" lon="-4.47575">
        <ele>62.211</ele>
        <time>2010-08-24T12:00:32Z</time>
      </trkpt>
      <trkpt lat="48.40876" lon="-4.47595">
        <ele>62.729</ele>
        <time>2010-08-24T12:00:40Z</time>
      </trkpt>
      <trkpt lat="48.40949" lon="-4.47615">
        <ele>65.083</ele>
        <time>2010-08-24T12:00:55Z</time>
      </trkpt>
      <trkpt lat="48.4102" lon="-4.47625">
        <ele>66.018</ele>
        <time>2010-08-24T12:01:09Z</time>
      </trkpt>
      <trkpt lat="48.4107" lon="-4.47629">
        <ele>64.495</ele>
        <time>2010-08-24T12:01:18Z</time>
      </trkpt>
      <trkpt lat="48.41155" lon="-4.47607">
        <ele>66.699</ele>
        <time>2010-08-24T12:01:33Z</time>
      </trkpt>
      <trkpt lat="48.41223" lon="-4.4759">
        <ele>67.355</ele>
        <time>2010-08-24T12:01:47Z</time>
      </trkpt>
      <trkpt lat="48.41231" lon="-4.47588">
        <ele>67.321</ele>
        <time>2010-08-24T12:01:50Z</time>
      </trkpt>
      <trkpt lat="48.41241" lon="-4.47586">
        <ele>67.116</ele>
        <time>2010-08-24T12:01:54Z</time>
      </trkpt>
      <trkpt lat="48.4128" lon="-4.47567">
        <ele>66.541</ele>
        <time>2010-08-24T12:02:00Z</time>
      </trkpt>
      <trkpt lat="48.41368" lon="-4.47529">
        <ele>68.1</ele>
        <time>2010-08-24T12:02:17Z</time>
      </trkpt>
      <trkpt lat="48.41391" lon="-4.4752">
        <ele>71.785</ele>
        <time>2010-08-24T12:02:22Z</time>
      </trkpt>
      <trkpt lat="48.41395" lon="-4.47519">
        <ele>71.863</ele>
        <time>2010-08-24T12:02:23Z</time>
      </trkpt>
      <trkpt lat="48.41399" lon="-4.47517">
        <ele>72.316</ele>
        <time>2010-08-24T12:02:24Z</time>
      </trkpt>
      <trkpt lat="48.41465" lon="-4.47513">
        <ele>74.202</ele>
        <time>2010-08-24T12:02:39Z</time>
      </trkpt>
      <trkpt lat="48.41508" lon="-4.47527">
        <ele>76.278</ele>
        <time>2010-08-24T12:02:55Z</time>
      </trkpt>
      <trkpt lat="48.41522" lon="-4.47531">
        <ele>77.384</ele>
        <time>2010-08-24T12:03:06Z</time>
      </trkpt>
      <trkpt lat="48.41572" lon="-4.4755">
        <ele>80.786</ele>
        <time>2010-08-24T12:03:20Z</time>
      </trkpt>
      <trkpt lat="48.41612" lon="-4.47572">
        <ele>83.988</ele>
        <time>2010-08-24T12:03:32Z</time>
      </trkpt>
      <trkpt lat="48.41659" lon="-4.47597">
        <ele>87.024</ele>
        <time>2010-08-24T12:03:46Z</time>
      </trkpt>
      <trkpt lat="48.41712" lon="-4.47627">
        <ele>88.288</ele>
        <time>2010-08-24T12:04:03Z</time>
      </trkpt>
      <trkpt lat="48.41775" lon="-4.4766">
        <ele>87.574</ele>
        <time>2010-08-24T12:04:20Z</time>
      </trkpt>
      <trkpt lat="48.41856" lon="-4.47674">
        <ele>84.991</ele>
        <time>2010-08-24T12:04:36Z</time>
      </trkpt>
      <trkpt lat="48.4191" lon="-4.4768">
        <ele>82.028</ele>
        <time>2010-08-24T12:04:44Z</time>
      </trkpt>
      <trkpt lat="48.41955" lon="-4.47686">
        <ele>79.99</ele>
        <time>2010-08-24T12:04:50Z</time>
      </trkpt>
      <trkpt lat="48.41986" lon="-4.47691">
        <ele>78.512</ele>
        <time>2010-08-24T12:04:54Z</time>
      </trkpt>
      <trkpt lat="48.42096" lon="-4.47711">
        <ele>75.112</ele>
        <time>2010-08-24T12:05:09Z</time>
      </trkpt>
      <trkpt lat="48.42117" lon="-4.47705">
        <ele>75.827</ele>
        <time>2010-08-24T12:05:12Z</time>
      </trkpt>
      <trkpt lat="48.42149" lon="-4.47693">
        <ele>77.105</ele>
        <time>2010-08-24T12:05:17Z</time>
      </trkpt>
      <trkpt lat="48.42195" lon="-4.47671">
        <ele>80.891</ele>
        <time>2010-08-24T12:05:25Z</time>
      </trkpt>
      <trkpt lat="48.422" lon="-4.47668">
        <ele>81.004</ele>
        <time>2010-08-24T12:05:26Z</time>
      </trkpt>
      <trkpt lat="48.42246" lon="-4.47641">
        <ele>84.264</ele>
        <time>2010-08-24T12:05:38Z</time>
      </trkpt>
      <trkpt lat="48.42271" lon="-4.47624">
        <ele>84.847</ele>
        <time>2010-08-24T12:05:40Z</time>
      </trkpt>
      <trkpt lat="48.42284" lon="-4.47616">
        <ele>84.83</ele>
        <time>2010-08-24T12:05:44Z</time>
      </trkpt>
      <trkpt lat="48.42297" lon="-4.47594">
        <ele>84.655</ele>
        <time>2010-08-24T12:05:46Z</time>
      </trkpt>
      <trkpt lat="48.42308" lon="-4.47573">
        <ele>85.717</ele>
        <time>2010-08-24T12:05:50Z</time>
      </trkpt>
      <trkpt lat="48.42393" lon="-4.47417">
        <ele>85.042</ele>
        <time>2010-08-24T12:06:12Z</time>
      </trkpt>
      <trkpt lat="48.42429" lon="-4.47336">
        <ele>84.535</ele>
        <time>2010-08-24T12:06:22Z</time>
      </trkpt>
      <trkpt lat="48.42454" lon="-4.4731">
        <ele>84.585</ele>
        <time>2010-08-24T12:06:27Z</time>
      </trkpt>
      <trkpt lat="48.42543" lon="-4.47273">
        <ele>85.35</ele>
        <time>2010-08-24T12:06:42Z</time>
      </trkpt>
      <trkpt lat="48.42566" lon="-4.47276">
        <ele>87.156</ele>
        <time>2010-08-24T12:06:46Z</time>
      </trkpt>
      <trkpt lat="48.42567" lon="-4.47277">
        <ele>87.717</ele>
        <time>2010-08-24T12:06:47Z</time>
      </trkpt>
      <trkpt lat="48.42589" lon="-4.47279">
        <ele>86.345</ele>
        <time>2010-08-24T12:06:52Z</time>
      </trkpt>
      <trkpt lat="48.42601" lon="-4.47297">
        <ele>87.719</ele>
        <time>2010-08-24T12:06:54Z</time>
      </trkpt>
      <trkpt lat="48.42638" lon="-4.47324">
        <ele>87.039</ele>
        <time>2010-08-24T12:07:01Z</time>
      </trkpt>
      <trkpt lat="48.4274" lon="-4.47359">
        <ele>86.5</ele>
        <time>2010-08-24T12:07:17Z</time>
      </trkpt>
      <trkpt lat="48.42752" lon="-4.47362">
        <ele>87.238</ele>
        <time>2010-08-24T12:07:20Z</time>
      </trkpt>
      <trkpt lat="48.42765" lon="-4.47362">
        <ele>85.588</ele>
        <time>2010-08-24T12:07:24Z</time>
      </trkpt>
      <trkpt lat="48.42755" lon="-4.47389">
        <ele>85.538</ele>
        <time>2010-08-24T12:07:27Z</time>
      </trkpt>
      <trkpt lat="48.42745" lon="-4.4746">
        <ele>87.366</ele>
        <time>2010-08-24T12:07:36Z</time>
      </trkpt>
      <trkpt lat="48.42716" lon="-4.47585">
        <ele>87.224</ele>
        <time>2010-08-24T12:07:54Z</time>
      </trkpt>
      <trkpt lat="48.42705" lon="-4.47613">
        <ele>87.145</ele>
        <time>2010-08-24T12:07:58Z</time>
      </trkpt>
      <trkpt lat="48.42724" lon="-4.47646">
        <ele>88.479</ele>
        <time>2010-08-24T12:08:04Z</time>
      </trkpt>
      <trkpt lat="48.42729" lon="-4.47647">
        <ele>88.822</ele>
        <time>2010-08-24T12:08:05Z</time>
      </trkpt>
      <trkpt lat="48.42837" lon="-4.47671">
        <ele>89.716</ele>
        <time>2010-08-24T12:08:25Z</time>
      </trkpt>
      <trkpt lat="48.42936" lon="-4.4769">
        <ele>88.033</ele>
        <time>2010-08-24T12:08:43Z</time>
      </trkpt>
      <trkpt lat="48.42997" lon="-4.47703">
        <ele>88.226</ele>
        <time>2010-08-24T12:08:54Z</time>
      </trkpt>
      <trkpt lat="48.43093" lon="-4.47729">
        <ele>83.62</ele>
        <time>2010-08-24T12:09:09Z</time>
      </trkpt>
      <trkpt lat="48.43108" lon="-4.47733">
        <ele>82.896</ele>
        <time>2010-08-24T12:09:11Z</time>
      </trkpt>
      <trkpt lat="48.43165" lon="-4.47748">
        <ele>79.459</ele>
        <time>2010-08-24T12:09:18Z</time>
      </trkpt>
      <trkpt lat="48.43183" lon="-4.47752">
        <ele>78.471</ele>
        <time>2010-08-24T12:09:20Z</time>
      </trkpt>
      <trkpt lat="48.43238" lon="-4.47767">
        <ele>75.321</ele>
        <time>2010-08-24T12:09:26Z</time>
      </trkpt>
      <trkpt lat="48.43273" lon="-4.47793">
        <ele>72.279</ele>
        <time>2010-08-24T12:09:30Z</time>
      </trkpt>
      <trkpt lat="48.43281" lon="-4.47799">
        <ele>72.449</ele>
        <time>2010-08-24T12:09:31Z</time>
      </trkpt>
      <trkpt lat="48.43319" lon="-4.47826">
        <ele>75.917</ele>
        <time>2010-08-24T12:09:36Z</time>
      </trkpt>
      <trkpt lat="48.43325" lon="-4.4783">
        <ele>75.763</ele>
        <time>2010-08-24T12:09:37Z</time>
      </trkpt>
      <trkpt lat="48.43352" lon="-4.47849">
        <ele>77.916</ele>
        <time>2010-08-24T12:09:42Z</time>
      </trkpt>
      <trkpt lat="48.43409" lon="-4.4788">
        <ele>78.91</ele>
        <time>2010-08-24T12:09:54Z</time>
      </trkpt>
      <trkpt lat="48.43418" lon="-4.47883">
        <ele>78.508</ele>
        <time>2010-08-24T12:09:56Z</time>
      </trkpt>
      <trkpt lat="48.43451" lon="-4.47891">
        <ele>75.848</ele>
        <time>2010-08-24T12:10:02Z</time>
      </trkpt>
      <trkpt lat="48.43519" lon="-4.47895">
        <ele>72.514</ele>
        <time>2010-08-24T12:10:10Z</time>
      </trkpt>
      <trkpt lat="48.43548" lon="-4.47893">
        <ele>69.417</ele>
        <time>2010-08-24T12:10:13Z</time>
      </trkpt>
      <trkpt lat="48.436" lon="-4.47888">
        <ele>66.431</ele>
        <time>2010-08-24T12:10:18Z</time>
      </trkpt>
      <trkpt lat="48.4362" lon="-4.47886">
        <ele>65.13</ele>
        <time>2010-08-24T12:10:20Z</time>
      </trkpt>
      <trkpt lat="48.43659" lon="-4.47883">
        <ele>65.298</ele>
        <time>2010-08-24T12:10:24Z</time>
      </trkpt>
      <trkpt lat="48.43712" lon="-4.47846">
        <ele>64.611</ele>
        <time>2010-08-24T12:10:30Z</time>
      </trkpt>
      <trkpt lat="48.43785" lon="-4.47748">
        <ele>66.01</ele>
        <time>2010-08-24T12:10:43Z</time>
      </trkpt>
      <trkpt lat="48.43867" lon="-4.47694">
        <ele>68.232</ele>
        <time>2010-08-24T12:10:58Z</time>
      </trkpt>
      <trkpt lat="48.43942" lon="-4.47682">
        <ele>70.791</ele>
        <time>2010-08-24T12:11:12Z</time>
      </trkpt>
      <trkpt lat="48.44031" lon="-4.47687">
        <ele>71.117</ele>
        <time>2010-08-24T12:11:28Z</time>
      </trkpt>
      <trkpt lat="48.44042" lon="-4.47688">
        <ele>70.7</ele>
        <time>2010-08-24T12:11:30Z</time>
      </trkpt>
      <trkpt lat="48.44081" lon="-4.47689">
        <ele>68.837</ele>
        <time>2010-08-24T12:11:36Z</time>
      </trkpt>
      <trkpt lat="48.44167" lon="-4.47664">
        <ele>66.692</ele>
        <time>2010-08-24T12:11:48Z</time>
      </trkpt>
      <trkpt lat="48.44229" lon="-4.47633">
        <ele>69.814</ele>
        <time>2010-08-24T12:11:58Z</time>
      </trkpt>
      <trkpt lat="48.44258" lon="-4.4762">
        <ele>72.9</ele>
        <time>2010-08-24T12:12:07Z</time>
      </trkpt>
      <trkpt lat="48.44329" lon="-4.47583">
        <ele>75.985</ele>
        <time>2010-08-24T12:12:20Z</time>
      </trkpt>
      <trkpt lat="48.44383" lon="-4.47554">
        <ele>78.652</ele>
        <time>2010-08-24T12:12:32Z</time>
      </trkpt>
      <trkpt lat="48.44437" lon="-4.47531">
        <ele>75.988</ele>
        <time>2010-08-24T12:12:42Z</time>
      </trkpt>
      <trkpt lat="48.44474" lon="-4.47524">
        <ele>72.958</ele>
        <time>2010-08-24T12:12:47Z</time>
      </trkpt>
      <trkpt lat="48.44508" lon="-4.47521">
        <ele>70.176</ele>
        <time>2010-08-24T12:12:51Z</time>
      </trkpt>
      <trkpt lat="48.44546" lon="-4.47538">
        <ele>65.933</ele>
        <time>2010-08-24T12:12:57Z</time>
      </trkpt>
      <trkpt lat="48.44546" lon="-4.47538">
        <ele>65.636</ele>
        <time>2010-08-24T12:12:58Z</time>
      </trkpt>
      <trkpt lat="48.4466" lon="-4.47626">
        <ele>68.048</ele>
        <time>2010-08-24T12:13:12Z</time>
      </trkpt>
      <trkpt lat="48.44695" lon="-4.4764">
        <ele>70.753</ele>
        <time>2010-08-24T12:13:18Z</time>
      </trkpt>
      <trkpt lat="48.4475" lon="-4.47646">
        <ele>74.037</ele>
        <time>2010-08-24T12:13:28Z</time>
      </trkpt>
      <trkpt lat="48.44819" lon="-4.47638">
        <ele>76.795</ele>
        <time>2010-08-24T12:13:42Z</time>
      </trkpt>
      <trkpt lat="48.44906" lon="-4.47626">
        <ele>76.683</ele>
        <time>2010-08-24T12:13:58Z</time>
      </trkpt>
      <trkpt lat="48.44919" lon="-4.47629">
        <ele>78.523</ele>
        <time>2010-08-24T12:14:05Z</time>
      </trkpt>
      <trkpt lat="48.44932" lon="-4.47616">
        <ele>79.202</ele>
        <time>2010-08-24T12:14:15Z</time>
      </trkpt>
      <trkpt lat="48.44957" lon="-4.47526">
        <ele>81.253</ele>
        <time>2010-08-24T12:14:29Z</time>
      </trkpt>
      <trkpt lat="48.44976" lon="-4.47438">
        <ele>84.391</ele>
        <time>2010-08-24T12:14:40Z</time>
      </trkpt>
      <trkpt lat="48.44978" lon="-4.47429">
        <ele>84.596</ele>
        <time>2010-08-24T12:14:41Z</time>
      </trkpt>
      <trkpt lat="48.45" lon="-4.47311">
        <ele>84.911</ele>
        <time>2010-08-24T12:14:56Z</time>
      </trkpt>
      <trkpt lat="48.45005" lon="-4.47229">
        <ele>84.688</ele>
        <time>2010-08-24T12:15:09Z</time>
      </trkpt>
      <trkpt lat="48.45005" lon="-4.47229">
        <ele>84.228</ele>
        <time>2010-08-24T12:15:11Z</time>
      </trkpt>
      <trkpt lat="48.4501" lon="-4.47165">
        <ele>81.365</ele>
        <time>2010-08-24T12:15:18Z</time>
      </trkpt>
      <trkpt lat="48.45032" lon="-4.47186">
        <ele>82.29</ele>
        <time>2010-08-24T12:15:23Z</time>
      </trkpt>
      <trkpt lat="48.45035" lon="-4.47199">
        <ele>83.111</ele>
        <time>2010-08-24T12:15:25Z</time>
      </trkpt>
      <trkpt lat="48.45061" lon="-4.47208">
        <ele>83.159</ele>
        <time>2010-08-24T12:15:29Z</time>
      </trkpt>
      <trkpt lat="48.45133" lon="-4.47222">
        <ele>84.502</ele>
        <time>2010-08-24T12:15:41Z</time>
      </trkpt>
      <trkpt lat="48.45237" lon="-4.47229">
        <ele>87.176</ele>
        <time>2010-08-24T12:15:59Z</time>
      </trkpt>
      <trkpt lat="48.45358" lon="-4.47247">
        <ele>88.568</ele>
        <time>2010-08-24T12:16:19Z</time>
      </trkpt>
      <trkpt lat="48.45475" lon="-4.47303">
        <ele>90.362</ele>
        <time>2010-08-24T12:16:42Z</time>
      </trkpt>
      <trkpt lat="48.45582" lon="-4.47411">
        <ele>89.926</ele>
        <time>2010-08-24T12:17:05Z</time>
      </trkpt>
      <trkpt lat="48.45707" lon="-4.47537">
        <ele>90.718</ele>
        <time>2010-08-24T12:17:31Z</time>
      </trkpt>
      <trkpt lat="48.45815" lon="-4.47581">
        <ele>91.571</ele>
        <time>2010-08-24T12:17:51Z</time>
      </trkpt>
      <trkpt lat="48.45931" lon="-4.47575">
        <ele>91.25</ele>
        <time>2010-08-24T12:18:10Z</time>
      </trkpt>
      <trkpt lat="48.45975" lon="-4.47569">
        <ele>89.946</ele>
        <time>2010-08-24T12:18:17Z</time>
      </trkpt>
      <trkpt lat="48.46001" lon="-4.47566">
        <ele>87.757</ele>
        <time>2010-08-24T12:18:21Z</time>
      </trkpt>
      <trkpt lat="48.46039" lon="-4.47561">
        <ele>90.149</ele>
        <time>2010-08-24T12:18:27Z</time>
      </trkpt>
      <trkpt lat="48.4617" lon="-4.47569">
        <ele>88.87</ele>
        <time>2010-08-24T12:18:47Z</time>
      </trkpt>
      <trkpt lat="48.46272" lon="-4.47595">
        <ele>85.321</ele>
        <time>2010-08-24T12:19:02Z</time>
      </trkpt>
      <trkpt lat="48.46467" lon="-4.47646">
        <ele>84.484</ele>
        <time>2010-08-24T12:19:31Z</time>
      </trkpt>
      <trkpt lat="48.46531" lon="-4.47662">
        <ele>80.704</ele>
        <time>2010-08-24T12:19:39Z</time>
      </trkpt>
      <trkpt lat="48.46566" lon="-4.47671">
        <ele>78.652</ele>
        <time>2010-08-24T12:19:43Z</time>
      </trkpt>
      <trkpt lat="48.46696" lon="-4.47708">
        <ele>78.433</ele>
        <time>2010-08-24T12:20:00Z</time>
      </trkpt>
      <trkpt lat="48.46802" lon="-4.47777">
        <ele>78.667</ele>
        <time>2010-08-24T12:20:17Z</time>
      </trkpt>
      <trkpt lat="48.46928" lon="-4.47914">
        <ele>79.637</ele>
        <time>2010-08-24T12:20:42Z</time>
      </trkpt>
      <trkpt lat="48.47039" lon="-4.48">
        <ele>80.447</ele>
        <time>2010-08-24T12:21:02Z</time>
      </trkpt>
      <trkpt lat="48.47213" lon="-4.48126">
        <ele>80.525</ele>
        <time>2010-08-24T12:21:33Z</time>
      </trkpt>
      <trkpt lat="48.47334" lon="-4.48239">
        <ele>80.742</ele>
        <time>2010-08-24T12:21:56Z</time>
      </trkpt>
      <trkpt lat="48.47473" lon="-4.48376">
        <ele>77.652</ele>
        <time>2010-08-24T12:22:22Z</time>
      </trkpt>
      <trkpt lat="48.47547" lon="-4.48453">
        <ele>74.674</ele>
        <time>2010-08-24T12:22:35Z</time>
      </trkpt>
      <trkpt lat="48.47666" lon="-4.48612">
        <ele>72.979</ele>
        <time>2010-08-24T12:22:57Z</time>
      </trkpt>
      <trkpt lat="48.47692" lon="-4.48655">
        <ele>70.658</ele>
        <time>2010-08-24T12:23:02Z</time>
      </trkpt>
      <trkpt lat="48.47756" lon="-4.48762">
        <ele>67.561</ele>
        <time>2010-08-24T12:23:14Z</time>
      </trkpt>
      <trkpt lat="48.47792" lon="-4.48825">
        <ele>64.559</ele>
        <time>2010-08-24T12:23:21Z</time>
      </trkpt>
      <trkpt lat="48.47865" lon="-4.48999">
        <ele>66.225</ele>
        <time>2010-08-24T12:23:41Z</time>
      </trkpt>
      <trkpt lat="48.47933" lon="-4.49196">
        <ele>65.364</ele>
        <time>2010-08-24T12:24:04Z</time>
      </trkpt>
      <trkpt lat="48.48024" lon="-4.49403">
        <ele>64.071</ele>
        <time>2010-08-24T12:24:30Z</time>
      </trkpt>
      <trkpt lat="48.48114" lon="-4.49554">
        <ele>66.507</ele>
        <time>2010-08-24T12:24:53Z</time>
      </trkpt>
      <trkpt lat="48.48228" lon="-4.49687">
        <ele>67.614</ele>
        <time>2010-08-24T12:25:17Z</time>
      </trkpt>
      <trkpt lat="48.48291" lon="-4.49745">
        <ele>70.298</ele>
        <time>2010-08-24T12:25:29Z</time>
      </trkpt>
      <trkpt lat="48.48362" lon="-4.49805">
        <ele>73.374</ele>
        <time>2010-08-24T12:25:43Z</time>
      </trkpt>
      <trkpt lat="48.48377" lon="-4.49819">
        <ele>74.751</ele>
        <time>2010-08-24T12:25:46Z</time>
      </trkpt>
      <trkpt lat="48.48499" lon="-4.49923">
        <ele>77.201</ele>
        <time>2010-08-24T12:26:10Z</time>
      </trkpt>
      <trkpt lat="48.4855" lon="-4.49967">
        <ele>75.854</ele>
        <time>2010-08-24T12:26:20Z</time>
      </trkpt>
      <trkpt lat="48.48665" lon="-4.5003">
        <ele>74.169</ele>
        <time>2010-08-24T12:26:39Z</time>
      </trkpt>
      <trkpt lat="48.4873" lon="-4.50054">
        <ele>72.316</ele>
        <time>2010-08-24T12:26:50Z</time>
      </trkpt>
      <trkpt lat="48.4878" lon="-4.50064">
        <ele>71.472</ele>
        <time>2010-08-24T12:26:58Z</time>
      </trkpt>
      <trkpt lat="48.48888" lon="-4.50088">
        <ele>67.933</ele>
        <time>2010-08-24T12:27:14Z</time>
      </trkpt>
      <trkpt lat="48.48973" lon="-4.50106">
        <ele>64.596</ele>
        <time>2010-08-24T12:27:26Z</time>
      </trkpt>
      <trkpt lat="48.48981" lon="-4.50108">
        <ele>64.403</ele>
        <time>2010-08-24T12:27:27Z</time>
      </trkpt>
      <trkpt lat="48.4902" lon="-4.50111">
        <ele>63.115</ele>
        <time>2010-08-24T12:27:32Z</time>
      </trkpt>
      <trkpt lat="48.49042" lon="-4.50108">
        <ele>62.811</ele>
        <time>2010-08-24T12:27:35Z</time>
      </trkpt>
      <trkpt lat="48.49069" lon="-4.50103">
        <ele>62.618</ele>
        <time>2010-08-24T12:27:39Z</time>
      </trkpt>
      <trkpt lat="48.49088" lon="-4.50066">
        <ele>62.154</ele>
        <time>2010-08-24T12:27:43Z</time>
      </trkpt>
      <trkpt lat="48.49123" lon="-4.50082">
        <ele>60.669</ele>
        <time>2010-08-24T12:27:48Z</time>
      </trkpt>
      <trkpt lat="48.49122" lon="-4.50101">
        <ele>61.819</ele>
        <time>2010-08-24T12:27:50Z</time>
      </trkpt>
      <trkpt lat="48.49117" lon="-4.50115">
        <ele>60.569</ele>
        <time>2010-08-24T12:27:52Z</time>
      </trkpt>
      <trkpt lat="48.49142" lon="-4.50149">
        <ele>61.845</ele>
        <time>2010-08-24T12:27:56Z</time>
      </trkpt>
      <trkpt lat="48.49148" lon="-4.5015">
        <ele>61.416</ele>
        <time>2010-08-24T12:27:57Z</time>
      </trkpt>
      <trkpt lat="48.49242" lon="-4.50168">
        <ele>61.312</ele>
        <time>2010-08-24T12:28:13Z</time>
      </trkpt>
      <trkpt lat="48.49346" lon="-4.50188">
        <ele>63.521</ele>
        <time>2010-08-24T12:28:31Z</time>
      </trkpt>
      <trkpt lat="48.49489" lon="-4.50223">
        <ele>64.42</ele>
        <time>2010-08-24T12:28:57Z</time>
      </trkpt>
      <trkpt lat="48.49569" lon="-4.50246">
        <ele>66.899</ele>
        <time>2010-08-24T12:29:12Z</time>
      </trkpt>
      <trkpt lat="48.49652" lon="-4.50298">
        <ele>65.453</ele>
        <time>2010-08-24T12:29:29Z</time>
      </trkpt>
      <trkpt lat="48.49691" lon="-4.50329">
        <ele>62.131</ele>
        <time>2010-08-24T12:29:36Z</time>
      </trkpt>
      <trkpt lat="48.49697" lon="-4.50334">
        <ele>61.978</ele>
        <time>2010-08-24T12:29:37Z</time>
      </trkpt>
      <trkpt lat="48.49771" lon="-4.50398">
        <ele>59.871</ele>
        <time>2010-08-24T12:29:49Z</time>
      </trkpt>
      <trkpt lat="48.49801" lon="-4.50426">
        <ele>57.365</ele>
        <time>2010-08-24T12:29:54Z</time>
      </trkpt>
      <trkpt lat="48.49818" lon="-4.50441">
        <ele>60.655</ele>
        <time>2010-08-24T12:29:57Z</time>
      </trkpt>
      <trkpt lat="48.49824" lon="-4.50446">
        <ele>60.407</ele>
        <time>2010-08-24T12:29:58Z</time>
      </trkpt>
    </trkseg>
  </trk>
</gpx>